Dades meteomassalio
Diari Summary for Gener 6, 2018 Units:  Both    English   Metric
« Previous Day
Next Day »
Diari Semanal Mensual Anual Personalitzat
  Maxima: Minima: Mijana:
Temperatura: TemperatureC °F /  -17.8 °C -0.6 °F /  -18.1 °C 5 °F /  -15 °C
Rosada: DewpointC °F /  -17.8 °C -2.8 °F /  -19.3 °C 2.5 °F /  -16.4 °C
Humitat: Humidity % 70 % 84 %
Velocitat del vent: WindSpeedKMH mph /  0 km/h - 5.2 mph /  8.4 km/h
Racha vent: WindSpeedGustKMH mph /  0 km/h - -
Vent:- - SW
Pressio: PressurehPa in /  0 hPa 998.9 in /  33822.8 hPa -
Pluja: 33.3 in /  845.82 mm    
Historical Graphs
 
 
Tabular Data for Gener 6, 2018
Time Temperature Dew Point Pressure Wind Wind Speed Wind Gust Humidity Rainfall Rate (Hourly) solar Conditions
TemperatureC °F /  -17.8 °C DewpointC °F /  -17.8 °C PressurehPa in /  0 hPa Calm     Humidity % HourlyPrecipMM in /  0 mm SolarRadiationWatts/m^2 W/m2 Conditions
00:04 2.2 °F /  -16.6 °C -0.7 °F /  -18.2 °C 1008.0 in /  34130.9 hPa Calm     81 % 0.0 in /  0 mm 0.0 W/m2 CLR
00:09 2.2 °F /  -16.6 °C -0.7 °F /  -18.2 °C 1008.0 in /  34130.9 hPa Calm     81 % 0.0 in /  0 mm 0.0 W/m2 CLR
00:14 1.7 °F /  -16.8 °C -1.2 °F /  -18.4 °C 1008.0 in /  34130.9 hPa Calm     81 % 0.0 in /  0 mm 0.0 W/m2 CLR
00:19 2.2 °F /  -16.6 °C -0.7 °F /  -18.2 °C 1008.0 in /  34130.9 hPa Calm     81 % 0.0 in /  0 mm 0.0 W/m2 CLR
00:24 2.2 °F /  -16.6 °C -0.7 °F /  -18.2 °C 1008.0 in /  34130.9 hPa Calm     81 % 0.0 in /  0 mm 0.0 W/m2 CLR
00:25 2.2 °F /  -16.6 °C -0.7 °F /  -18.2 °C 1007.7 in /  34120.7 hPa Calm     81 % 0.0 in /  0 mm 0.0 W/m2 CLR
00:30 1.7 °F /  -16.8 °C -1.2 °F /  -18.4 °C 1007.7 in /  34120.7 hPa Calm     81 % 0.0 in /  0 mm 0.0 W/m2 CLR
00:35 2.2 °F /  -16.6 °C -0.7 °F /  -18.2 °C 1007.7 in /  34120.7 hPa Calm     81 % 0.0 in /  0 mm 0.0 W/m2 CLR
00:36 2.2 °F /  -16.6 °C -0.7 °F /  -18.2 °C 1007.7 in /  34120.7 hPa Calm     81 % 0.0 in /  0 mm 0.0 W/m2 CLR
00:41 1.7 °F /  -16.8 °C -1.1 °F /  -18.4 °C 1007.7 in /  34120.7 hPa Calm     82 % 0.0 in /  0 mm 0.0 W/m2 CLR
00:44 1.7 °F /  -16.8 °C -1.1 °F /  -18.4 °C 1007.7 in /  34120.7 hPa Calm     82 % 0.0 in /  0 mm 0.0 W/m2 CLR
00:46 1.7 °F /  -16.8 °C -1.1 °F /  -18.4 °C 1007.7 in /  34120.7 hPa Calm     82 % 0.0 in /  0 mm 0.0 W/m2 CLR
00:51 1.7 °F /  -16.8 °C -1.1 °F /  -18.4 °C 1007.7 in /  34120.7 hPa Calm     82 % 0.0 in /  0 mm 0.0 W/m2 CLR
00:53 1.7 °F /  -16.8 °C -1.1 °F /  -18.4 °C 1007.7 in /  34120.7 hPa Calm     82 % 0.0 in /  0 mm 0.0 W/m2 CLR
00:58 1.7 °F /  -16.8 °C -1.1 °F /  -18.4 °C 1007.7 in /  34120.7 hPa Calm     82 % 0.0 in /  0 mm 0.0 W/m2 CLR
00:59 1.7 °F /  -16.8 °C -1.1 °F /  -18.4 °C 1007.7 in /  34120.7 hPa Calm     82 % 0.0 in /  0 mm 0.0 W/m2 CLR
01:05 1.7 °F /  -16.8 °C -0.9 °F /  -18.3 °C 1007.3 in /  34107.2 hPa Calm     83 % 0.0 in /  0 mm 0.0 W/m2 CLR
01:11 1.7 °F /  -16.8 °C -0.9 °F /  -18.3 °C 1007.3 in /  34107.2 hPa Calm     83 % 0.0 in /  0 mm 0.0 W/m2 CLR
01:12 1.7 °F /  -16.8 °C -0.9 °F /  -18.3 °C 1007.0 in /  34097 hPa Calm     83 % 0.0 in /  0 mm 0.0 W/m2 CLR
01:17 1.7 °F /  -16.8 °C -0.9 °F /  -18.3 °C 1007.0 in /  34097 hPa Calm     83 % 0.0 in /  0 mm 0.0 W/m2 CLR
01:19 1.7 °F /  -16.8 °C -0.9 °F /  -18.3 °C 1007.0 in /  34097 hPa Calm     83 % 0.0 in /  0 mm 0.0 W/m2 CLR
01:25 1.1 °F /  -17.2 °C -1.3 °F /  -18.5 °C 1007.0 in /  34097 hPa Calm     84 % 0.0 in /  0 mm 0.0 W/m2 CLR
01:29 1.1 °F /  -17.2 °C -1.3 °F /  -18.5 °C 1007.0 in /  34097 hPa Calm     84 % 0.0 in /  0 mm 0.0 W/m2 CLR
01:33 1.1 °F /  -17.2 °C -1.3 °F /  -18.5 °C 1006.7 in /  34086.9 hPa Calm     84 % 0.0 in /  0 mm 0.0 W/m2 CLR
01:35 1.1 °F /  -17.2 °C -1.3 °F /  -18.5 °C 1006.7 in /  34086.9 hPa Calm     84 % 0.0 in /  0 mm 0.0 W/m2 CLR
01:40 1.1 °F /  -17.2 °C -1.3 °F /  -18.5 °C 1006.7 in /  34086.9 hPa Calm     84 % 0.0 in /  0 mm 0.0 W/m2 CLR
01:45 1.1 °F /  -17.2 °C -1.1 °F /  -18.4 °C 1006.7 in /  34086.9 hPa Calm     85 % 0.0 in /  0 mm 0.0 W/m2 CLR
01:48 1.1 °F /  -17.2 °C -1.1 °F /  -18.4 °C 1006.3 in /  34073.3 hPa Calm     85 % 0.0 in /  0 mm 0.0 W/m2 CLR
01:53 1.1 °F /  -17.2 °C -1.1 °F /  -18.4 °C 1006.3 in /  34073.3 hPa Calm     85 % 0.0 in /  0 mm 0.0 W/m2 CLR
02:03 1.1 °F /  -17.2 °C -1.3 °F /  -18.5 °C 1006.3 in /  34073.3 hPa Calm     84 % 0.0 in /  0 mm 0.0 W/m2 CLR
02:08 1.1 °F /  -17.2 °C -1.3 °F /  -18.5 °C 1006.3 in /  34073.3 hPa Calm     84 % 0.0 in /  0 mm 0.0 W/m2 CLR
02:12 1.1 °F /  -17.2 °C -1.3 °F /  -18.5 °C 1006.3 in /  34073.3 hPa Calm     84 % 0.0 in /  0 mm 0.0 W/m2 CLR
02:17 0.6 °F /  -17.4 °C -1.8 °F /  -18.8 °C 1006.3 in /  34073.3 hPa Calm     84 % 0.0 in /  0 mm 0.0 W/m2 CLR
02:22 0.6 °F /  -17.4 °C -1.7 °F /  -18.7 °C 1006.3 in /  34073.3 hPa Calm     85 % 0.0 in /  0 mm 0.0 W/m2 CLR
02:24 1.1 °F /  -17.2 °C -1.1 °F /  -18.4 °C 1006.3 in /  34073.3 hPa Calm     85 % 0.0 in /  0 mm 0.0 W/m2 CLR
02:29 0.6 °F /  -17.4 °C -1.7 °F /  -18.7 °C 1006.3 in /  34073.3 hPa Calm     85 % 0.0 in /  0 mm 0.0 W/m2 CLR
02:31 0.6 °F /  -17.4 °C -1.7 °F /  -18.7 °C 1006.3 in /  34073.3 hPa Calm     85 % 0.0 in /  0 mm 0.0 W/m2 CLR
02:34 0.6 °F /  -17.4 °C -1.7 °F /  -18.7 °C 1006.3 in /  34073.3 hPa Calm     85 % 0.0 in /  0 mm 0.0 W/m2 CLR
02:39 0.6 °F /  -17.4 °C -1.5 °F /  -18.6 °C 1006.3 in /  34073.3 hPa Calm     86 % 0.0 in /  0 mm 0.0 W/m2 CLR
02:44 0.6 °F /  -17.4 °C -1.5 °F /  -18.6 °C 1006.3 in /  34073.3 hPa Calm     86 % 0.0 in /  0 mm 0.0 W/m2 CLR
02:45 0.6 °F /  -17.4 °C -1.5 °F /  -18.6 °C 1006.3 in /  34073.3 hPa Calm     86 % 0.0 in /  0 mm 0.0 W/m2 CLR
02:50 0.6 °F /  -17.4 °C -1.5 °F /  -18.6 °C 1006.3 in /  34073.3 hPa Calm     86 % 0.0 in /  0 mm 0.0 W/m2 CLR
02:51 0.6 °F /  -17.4 °C -1.5 °F /  -18.6 °C 1006.3 in /  34073.3 hPa Calm     86 % 0.0 in /  0 mm 0.0 W/m2 CLR
02:56 0.6 °F /  -17.4 °C -1.5 °F /  -18.6 °C 1006.3 in /  34073.3 hPa Calm     86 % 0.0 in /  0 mm 0.0 W/m2 CLR
02:59 0.6 °F /  -17.4 °C -1.5 °F /  -18.6 °C 1006.3 in /  34073.3 hPa Calm     86 % 0.0 in /  0 mm 0.0 W/m2 CLR
03:04 0.6 °F /  -17.4 °C -1.5 °F /  -18.6 °C 1006.0 in /  34063.2 hPa Calm     86 % 0.0 in /  0 mm 0.0 W/m2 CLR
03:09 0.6 °F /  -17.4 °C -1.3 °F /  -18.5 °C 1006.0 in /  34063.2 hPa Calm     87 % 0.0 in /  0 mm 0.0 W/m2 CLR
03:14 0.6 °F /  -17.4 °C -1.5 °F /  -18.6 °C 1005.6 in /  34049.6 hPa Calm     86 % 0.0 in /  0 mm 0.0 W/m2 CLR
03:19 0.6 °F /  -17.4 °C -1.5 °F /  -18.6 °C 1005.6 in /  34049.6 hPa Calm     86 % 0.0 in /  0 mm 0.0 W/m2 CLR
03:20 0.6 °F /  -17.4 °C -1.5 °F /  -18.6 °C 1005.6 in /  34049.6 hPa Calm     86 % 0.0 in /  0 mm 0.0 W/m2 CLR
03:25 0.6 °F /  -17.4 °C -1.3 °F /  -18.5 °C 1005.6 in /  34049.6 hPa Calm     87 % 0.0 in /  0 mm 0.0 W/m2 CLR
03:26 0.6 °F /  -17.4 °C -1.3 °F /  -18.5 °C 1005.6 in /  34049.6 hPa Calm     87 % 0.0 in /  0 mm 0.0 W/m2 CLR
03:31 0.6 °F /  -17.4 °C -1.2 °F /  -18.4 °C 1005.6 in /  34049.6 hPa Calm     88 % 0.0 in /  0 mm 0.0 W/m2 CLR
03:36 0.6 °F /  -17.4 °C -1.5 °F /  -18.6 °C 1005.3 in /  34039.5 hPa Calm     86 % 0.0 in /  0 mm 0.0 W/m2 CLR
03:39 0.6 °F /  -17.4 °C -1.5 °F /  -18.6 °C 1005.3 in /  34039.5 hPa Calm     86 % 0.0 in /  0 mm 0.0 W/m2 CLR
03:44 0.6 °F /  -17.4 °C -1.5 °F /  -18.6 °C 1005.3 in /  34039.5 hPa Calm     86 % 0.0 in /  0 mm 0.0 W/m2 CLR
03:49 0.6 °F /  -17.4 °C -1.2 °F /  -18.4 °C 1005.3 in /  34039.5 hPa Calm     88 % 0.0 in /  0 mm 0.0 W/m2 CLR
03:54 0.6 °F /  -17.4 °C -1.3 °F /  -18.5 °C 1005.3 in /  34039.5 hPa Calm     87 % 0.0 in /  0 mm 0.0 W/m2 CLR
03:57 0.6 °F /  -17.4 °C -1.5 °F /  -18.6 °C 1005.0 in /  34029.3 hPa Calm     86 % 0.0 in /  0 mm 0.0 W/m2 CLR
04:03 0.6 °F /  -17.4 °C -1.5 °F /  -18.6 °C 1005.0 in /  34029.3 hPa Calm     86 % 0.0 in /  0 mm 0.0 W/m2 CLR
04:08 0.0 °F /  -17.8 °C -1.9 °F /  -18.8 °C 1005.0 in /  34029.3 hPa Calm     87 % 0.0 in /  0 mm 0.0 W/m2 CLR
04:13 0.0 °F /  -17.8 °C -1.9 °F /  -18.8 °C 1004.6 in /  34015.8 hPa Calm     87 % 0.0 in /  0 mm 0.0 W/m2 CLR
04:18 0.0 °F /  -17.8 °C -1.9 °F /  -18.8 °C 1004.6 in /  34015.8 hPa Calm     87 % 0.0 in /  0 mm 0.0 W/m2 CLR
04:23 0.0 °F /  -17.8 °C -1.9 °F /  -18.8 °C 1004.6 in /  34015.8 hPa Calm     87 % 0.0 in /  0 mm 0.0 W/m2 CLR
04:28 0.0 °F /  -17.8 °C -2.2 °F /  -19 °C 1004.3 in /  34005.6 hPa Calm     85 % 0.0 in /  0 mm 0.0 W/m2 CLR
04:33 -0.6 °F /  -18.1 °C -2.8 °F /  -19.3 °C 1004.3 in /  34005.6 hPa Calm     85 % 0.0 in /  0 mm 0.0 W/m2 CLR
04:38 0.0 °F /  -17.8 °C -2.1 °F /  -18.9 °C 1004.3 in /  34005.6 hPa Calm     86 % 0.0 in /  0 mm 0.0 W/m2 CLR
04:42 0.0 °F /  -17.8 °C -1.9 °F /  -18.8 °C 1004.3 in /  34005.6 hPa Calm     87 % 0.0 in /  0 mm 0.0 W/m2 CLR
04:43 0.0 °F /  -17.8 °C -1.8 °F /  -18.8 °C 1004.3 in /  34005.6 hPa Calm     88 % 0.0 in /  0 mm 0.0 W/m2 CLR
04:48 0.6 °F /  -17.4 °C -1.5 °F /  -18.6 °C 1004.3 in /  34005.6 hPa Calm     86 % 0.0 in /  0 mm 0.0 W/m2 CLR
04:53 0.6 °F /  -17.4 °C -1.5 °F /  -18.6 °C 1004.3 in /  34005.6 hPa Calm     86 % 0.0 in /  0 mm 0.0 W/m2 CLR
04:55 0.6 °F /  -17.4 °C -1.5 °F /  -18.6 °C 1004.3 in /  34005.6 hPa Calm     86 % 0.0 in /  0 mm 0.0 W/m2 CLR
05:00 0.6 °F /  -17.4 °C -1.7 °F /  -18.7 °C 1003.9 in /  33992.1 hPa Calm     85 % 0.0 in /  0 mm 0.0 W/m2 CLR
05:03 0.6 °F /  -17.4 °C -1.5 °F /  -18.6 °C 1003.9 in /  33992.1 hPa Calm     86 % 0.0 in /  0 mm 0.0 W/m2 CLR
05:08 0.0 °F /  -17.8 °C -1.9 °F /  -18.8 °C 1004.3 in /  34005.6 hPa Calm     87 % 0.0 in /  0 mm 0.0 W/m2 CLR
05:13 0.0 °F /  -17.8 °C -2.1 °F /  -18.9 °C 1004.3 in /  34005.6 hPa Calm     86 % 0.0 in /  0 mm 0.0 W/m2 CLR
05:19 0.0 °F /  -17.8 °C -2.1 °F /  -18.9 °C 1003.9 in /  33992.1 hPa Calm     86 % 0.0 in /  0 mm 0.0 W/m2 CLR
05:24 0.0 °F /  -17.8 °C -2.1 °F /  -18.9 °C 1003.9 in /  33992.1 hPa Calm     86 % 0.0 in /  0 mm 0.0 W/m2 CLR
05:30 0.0 °F /  -17.8 °C -1.9 °F /  -18.8 °C 1003.9 in /  33992.1 hPa Calm     87 % 0.0 in /  0 mm 0.0 W/m2 CLR
05:35 0.6 °F /  -17.4 °C -1.3 °F /  -18.5 °C 1003.9 in /  33992.1 hPa Calm     87 % 0.0 in /  0 mm 0.0 W/m2 CLR
05:36 0.6 °F /  -17.4 °C -1.3 °F /  -18.5 °C 1003.9 in /  33992.1 hPa Calm     87 % 0.0 in /  0 mm 0.0 W/m2 CLR
05:41 0.6 °F /  -17.4 °C -1.2 °F /  -18.4 °C 1003.9 in /  33992.1 hPa Calm     88 % 0.0 in /  0 mm 0.0 W/m2 CLR
05:42 0.6 °F /  -17.4 °C -1.2 °F /  -18.4 °C 1003.9 in /  33992.1 hPa Calm     88 % 0.0 in /  0 mm 0.0 W/m2 CLR
05:47 1.1 °F /  -17.2 °C -0.7 °F /  -18.2 °C 1003.9 in /  33992.1 hPa Calm     88 % 0.0 in /  0 mm 0.0 W/m2 CLR
05:48 1.1 °F /  -17.2 °C -0.7 °F /  -18.2 °C 1003.9 in /  33992.1 hPa Calm     88 % 0.0 in /  0 mm 0.0 W/m2 CLR
05:53 1.7 °F /  -16.8 °C -0.1 °F /  -17.8 °C 1003.9 in /  33992.1 hPa Calm     88 % 0.0 in /  0 mm 0.0 W/m2 CLR
05:55 1.7 °F /  -16.8 °C -0.1 °F /  -17.8 °C 1003.9 in /  33992.1 hPa Calm     88 % 0.0 in /  0 mm 0.0 W/m2 CLR
06:00 1.7 °F /  -16.8 °C -0.3 °F /  -17.9 °C 1003.6 in /  33981.9 hPa Calm     87 % 0.0 in /  0 mm 0.0 W/m2 CLR
06:01 1.7 °F /  -16.8 °C -0.3 °F /  -17.9 °C 1003.6 in /  33981.9 hPa Calm     87 % 0.0 in /  0 mm 0.0 W/m2 CLR
06:02 1.7 °F /  -16.8 °C -0.3 °F /  -17.9 °C 1003.6 in /  33981.9 hPa Calm     87 % 0.0 in /  0 mm 0.0 W/m2 CLR
06:07 1.7 °F /  -16.8 °C -0.3 °F /  -17.9 °C 1003.6 in /  33981.9 hPa Calm     87 % 0.0 in /  0 mm 0.0 W/m2 CLR
06:11 1.7 °F /  -16.8 °C -0.4 °F /  -18 °C 1003.6 in /  33981.9 hPa Calm     86 % 0.0 in /  0 mm 0.0 W/m2 CLR
06:15 1.7 °F /  -16.8 °C -0.3 °F /  -17.9 °C 1003.6 in /  33981.9 hPa Calm     87 % 0.0 in /  0 mm 0.0 W/m2 CLR
06:20 1.7 °F /  -16.8 °C -0.1 °F /  -17.8 °C 1003.6 in /  33981.9 hPa Calm     88 % 0.0 in /  0 mm 0.0 W/m2 CLR
06:21 1.7 °F /  -16.8 °C -0.1 °F /  -17.8 °C 1003.6 in /  33981.9 hPa Calm     88 % 0.0 in /  0 mm 0.0 W/m2 CLR
06:26 1.7 °F /  -16.8 °C -0.3 °F /  -17.9 °C 1003.6 in /  33981.9 hPa Calm     87 % 0.0 in /  0 mm 0.0 W/m2 CLR
06:31 1.7 °F /  -16.8 °C -0.3 °F /  -17.9 °C 1003.6 in /  33981.9 hPa Calm     87 % 0.0 in /  0 mm 0.0 W/m2 CLR
06:36 1.7 °F /  -16.8 °C -0.4 °F /  -18 °C 1003.3 in /  33971.7 hPa Calm     86 % 0.0 in /  0 mm 0.0 W/m2 CLR
06:41 1.7 °F /  -16.8 °C -0.3 °F /  -17.9 °C 1003.6 in /  33981.9 hPa Calm     87 % 0.0 in /  0 mm 0.0 W/m2 CLR
06:46 1.7 °F /  -16.8 °C -0.4 °F /  -18 °C 1003.6 in /  33981.9 hPa Calm     86 % 0.0 in /  0 mm 0.0 W/m2 CLR
06:51 1.7 °F /  -16.8 °C -0.4 °F /  -18 °C 1003.6 in /  33981.9 hPa Calm     86 % 0.0 in /  0 mm 0.0 W/m2 CLR
06:56 1.7 °F /  -16.8 °C -0.6 °F /  -18.1 °C 1003.3 in /  33971.7 hPa Calm     85 % 0.0 in /  0 mm 0.0 W/m2 CLR
06:59 1.7 °F /  -16.8 °C -0.6 °F /  -18.1 °C 1003.6 in /  33981.9 hPa Calm     85 % 0.0 in /  0 mm 0.0 W/m2 CLR
07:04 2.2 °F /  -16.6 °C -0.1 °F /  -17.8 °C 1003.3 in /  33971.7 hPa Calm     85 % 0.0 in /  0 mm 0.0 W/m2 CLR
07:09 1.7 °F /  -16.8 °C -0.7 °F /  -18.2 °C 1003.3 in /  33971.7 hPa Calm     84 % 0.0 in /  0 mm 0.0 W/m2 CLR
07:13 2.2 °F /  -16.6 °C -0.2 °F /  -17.9 °C 1003.6 in /  33981.9 hPa Calm     84 % 0.0 in /  0 mm 0.0 W/m2 CLR
07:16 2.2 °F /  -16.6 °C -0.2 °F /  -17.9 °C 1003.6 in /  33981.9 hPa Calm     84 % 0.0 in /  0 mm 0.0 W/m2 CLR
07:19 1.7 °F /  -16.8 °C -0.6 °F /  -18.1 °C 1003.3 in /  33971.7 hPa Calm     85 % 0.0 in /  0 mm 0.0 W/m2 CLR
07:25 1.7 °F /  -16.8 °C -0.7 °F /  -18.2 °C 1003.3 in /  33971.7 hPa Calm     84 % 0.0 in /  0 mm 0.0 W/m2 CLR
07:26 1.7 °F /  -16.8 °C -0.7 °F /  -18.2 °C 1003.3 in /  33971.7 hPa Calm     84 % 0.0 in /  0 mm 0.0 W/m2 CLR
07:31 1.7 °F /  -16.8 °C -0.9 °F /  -18.3 °C 1003.3 in /  33971.7 hPa Calm     83 % 0.0 in /  0 mm 0.0 W/m2 CLR
07:37 1.7 °F /  -16.8 °C -1.1 °F /  -18.4 °C 1003.3 in /  33971.7 hPa Calm     82 % 0.0 in /  0 mm 0.0 W/m2 CLR
07:41 2.2 °F /  -16.6 °C -0.6 °F /  -18.1 °C 1003.3 in /  33971.7 hPa Calm     82 % 0.0 in /  0 mm 0.0 W/m2 CLR
07:46 2.2 °F /  -16.6 °C -0.2 °F /  -17.9 °C 1003.3 in /  33971.7 hPa Calm     84 % 0.0 in /  0 mm 0.0 W/m2 CLR
07:47 2.2 °F /  -16.6 °C -0.2 °F /  -17.9 °C 1003.3 in /  33971.7 hPa Calm     84 % 0.0 in /  0 mm 0.0 W/m2 CLR
07:49 2.2 °F /  -16.6 °C -0.2 °F /  -17.9 °C 1003.3 in /  33971.7 hPa Calm     84 % 0.0 in /  0 mm 0.0 W/m2 CLR
07:54 2.2 °F /  -16.6 °C -0.1 °F /  -17.8 °C 1002.9 in /  33958.2 hPa Calm     85 % 0.0 in /  0 mm 0.0 W/m2 CLR
07:56 2.2 °F /  -16.6 °C -0.2 °F /  -17.9 °C 1002.9 in /  33958.2 hPa Calm     84 % 0.0 in /  0 mm 0.0 W/m2 CLR
08:01 2.2 °F /  -16.6 °C -0.2 °F /  -17.9 °C 1002.9 in /  33958.2 hPa Calm     84 % 0.0 in /  0 mm 0.0 W/m2 CLR
08:02 2.2 °F /  -16.6 °C -0.2 °F /  -17.9 °C 1002.9 in /  33958.2 hPa Calm     84 % 0.0 in /  0 mm 0.0 W/m2 CLR
08:04 2.2 °F /  -16.6 °C -0.2 °F /  -17.9 °C 1003.3 in /  33971.7 hPa Calm     84 % 0.0 in /  0 mm 0.0 W/m2 CLR
08:08 2.2 °F /  -16.6 °C -0.2 °F /  -17.9 °C 1002.9 in /  33958.2 hPa Calm     84 % 0.0 in /  0 mm 0.0 W/m2 CLR
08:13 2.2 °F /  -16.6 °C -0.2 °F /  -17.9 °C 1003.3 in /  33971.7 hPa Calm     84 % 0.0 in /  0 mm 0.0 W/m2 CLR
08:18 2.2 °F /  -16.6 °C -0.2 °F /  -17.9 °C 1003.3 in /  33971.7 hPa Calm     84 % 0.0 in /  0 mm 0.0 W/m2 OVC
08:21 2.8 °F /  -16.2 °C 0.3 °F /  -17.6 °C 1003.3 in /  33971.7 hPa Calm     84 % 0.0 in /  0 mm 0.0 W/m2 OVC
08:26 2.8 °F /  -16.2 °C 0.3 °F /  -17.6 °C 1003.3 in /  33971.7 hPa Calm     84 % 0.0 in /  0 mm 9.0 W/m2 BKN
08:32 2.8 °F /  -16.2 °C 0.2 °F /  -17.7 °C 1003.6 in /  33981.9 hPa Calm     83 % 0.0 in /  0 mm 5.0 W/m2 OVC
08:34 2.8 °F /  -16.2 °C 0.2 °F /  -17.7 °C 1003.6 in /  33981.9 hPa Calm     83 % 0.0 in /  0 mm 5.0 W/m2 OVC
08:39 2.8 °F /  -16.2 °C 0.2 °F /  -17.7 °C 1003.6 in /  33981.9 hPa Calm     83 % 0.0 in /  0 mm 9.0 W/m2 BKN
08:44 2.8 °F /  -16.2 °C 0.2 °F /  -17.7 °C 1003.6 in /  33981.9 hPa Calm     83 % 0.0 in /  0 mm 11.0 W/m2 BKN
08:45 2.8 °F /  -16.2 °C 0.2 °F /  -17.7 °C 1003.6 in /  33981.9 hPa Calm     83 % 0.0 in /  0 mm 11.0 W/m2 BKN
08:50 3.3 °F /  -15.9 °C 0.7 °F /  -17.4 °C 1003.6 in /  33981.9 hPa Calm     83 % 0.0 in /  0 mm 14.0 W/m2 BKN
08:51 3.3 °F /  -15.9 °C 0.7 °F /  -17.4 °C 1003.6 in /  33981.9 hPa Calm     83 % 0.0 in /  0 mm 14.0 W/m2 BKN
08:56 3.3 °F /  -15.9 °C 0.6 °F /  -17.4 °C 1003.6 in /  33981.9 hPa Calm     82 % 0.0 in /  0 mm 19.0 W/m2 BKN
09:01 3.3 °F /  -15.9 °C 0.6 °F /  -17.4 °C 1003.6 in /  33981.9 hPa Calm     82 % 0.0 in /  0 mm 21.0 W/m2 BKN
09:06 3.3 °F /  -15.9 °C 0.6 °F /  -17.4 °C 1003.9 in /  33992.1 hPa Calm     82 % 0.0 in /  0 mm 21.0 W/m2 BKN
09:11 3.3 °F /  -15.9 °C 0.6 °F /  -17.4 °C 1003.9 in /  33992.1 hPa Calm     82 % 0.0 in /  0 mm 25.0 W/m2 BKN
09:13 3.3 °F /  -15.9 °C 0.7 °F /  -17.4 °C 1003.9 in /  33992.1 hPa Calm     83 % 0.0 in /  0 mm 28.0 W/m2 BKN
09:18 3.3 °F /  -15.9 °C 0.7 °F /  -17.4 °C 1003.9 in /  33992.1 hPa Calm     83 % 0.0 in /  0 mm 35.0 W/m2 BKN
09:20 3.3 °F /  -15.9 °C 0.7 °F /  -17.4 °C 1003.9 in /  33992.1 hPa Calm     83 % 0.0 in /  0 mm 39.0 W/m2 BKN
09:25 3.9 °F /  -15.6 °C 1.4 °F /  -17 °C 1003.9 in /  33992.1 hPa Calm     84 % 0.0 in /  0 mm 49.0 W/m2 BKN
09:28 3.9 °F /  -15.6 °C 1.4 °F /  -17 °C 1003.9 in /  33992.1 hPa Calm     84 % 0.0 in /  0 mm 58.0 W/m2 BKN
09:33 3.9 °F /  -15.6 °C 1.6 °F /  -16.9 °C 1004.3 in /  34005.6 hPa Calm     85 % 0.0 in /  0 mm 77.0 W/m2 SCT
09:38 3.9 °F /  -15.6 °C 1.6 °F /  -16.9 °C 1004.3 in /  34005.6 hPa Calm     85 % 0.0 in /  0 mm 91.0 W/m2 FEW
09:40 4.4 °F /  -15.3 °C 2.2 °F /  -16.6 °C 1004.3 in /  34005.6 hPa Calm     85 % 0.0 in /  0 mm 100.0 W/m2 FEW
09:45 4.4 °F /  -15.3 °C 2.2 °F /  -16.6 °C 1004.3 in /  34005.6 hPa Calm     85 % 0.0 in /  0 mm 91.0 W/m2 CLR
09:50 5.0 °F /  -15 °C 2.7 °F /  -16.3 °C 1004.3 in /  34005.6 hPa Calm     85 % 0.0 in /  0 mm 67.0 W/m2 CLR
09:55 5.6 °F /  -14.7 °C 3.2 °F /  -16 °C 1004.3 in /  34005.6 hPa Calm     85 % 0.0 in /  0 mm 56.0 W/m2 FEW
09:59 5.6 °F /  -14.7 °C 3.2 °F /  -16 °C 1004.3 in /  34005.6 hPa Calm     85 % 0.0 in /  0 mm 60.0 W/m2 SCT
10:01 5.6 °F /  -14.7 °C 3.2 °F /  -16 °C 1004.3 in /  34005.6 hPa Calm     85 % 0.0 in /  0 mm 67.0 W/m2 SCT
10:06 5.6 °F /  -14.7 °C 3.2 °F /  -16 °C 1004.3 in /  34005.6 hPa Calm     85 % 0.0 in /  0 mm 76.0 W/m2 FEW
10:11 5.6 °F /  -14.7 °C 3.2 °F /  -16 °C 1004.3 in /  34005.6 hPa Calm     85 % 0.0 in /  0 mm 70.0 W/m2 FEW
10:16 5.6 °F /  -14.7 °C 3.2 °F /  -16 °C 1004.3 in /  34005.6 hPa Calm     85 % 0.0 in /  0 mm 84.0 W/m2 FEW
10:20 5.6 °F /  -14.7 °C 3.2 °F /  -16 °C 1004.3 in /  34005.6 hPa Calm     85 % 0.0 in /  0 mm 88.0 W/m2 FEW
10:25 5.6 °F /  -14.7 °C 3.2 °F /  -16 °C 1004.3 in /  34005.6 hPa Calm     85 % 0.0 in /  0 mm 93.0 W/m2 CLR
10:30 5.6 °F /  -14.7 °C 3.4 °F /  -15.9 °C 1004.3 in /  34005.6 hPa Calm     86 % 0.0 in /  0 mm 183.0 W/m2 CLR
10:32 5.6 °F /  -14.7 °C 3.4 °F /  -15.9 °C 1004.6 in /  34015.8 hPa Calm     86 % 0.0 in /  0 mm 290.0 W/m2 CLR
10:37 6.1 °F /  -14.4 °C 3.8 °F /  -15.7 °C 1004.6 in /  34015.8 hPa Calm     85 % 0.0 in /  0 mm 223.0 W/m2 CLR
10:39 6.1 °F /  -14.4 °C 3.8 °F /  -15.7 °C 1004.6 in /  34015.8 hPa NNW 12.9 mph /  20.8 km/h 12.9 mph /  20.8 km/h 85 % 0.0 in /  0 mm 350.0 W/m2 CLR
10:44 6.7 °F /  -14.1 °C 4.2 °F /  -15.4 °C 1004.6 in /  34015.8 hPa NNW 9.3 mph /  15 km/h 9.3 mph /  15 km/h 84 % 0.0 in /  0 mm 366.0 W/m2 CLR
10:49 6.7 °F /  -14.1 °C 4.0 °F /  -15.6 °C 1004.6 in /  34015.8 hPa North 13.0 mph /  20.9 km/h 13.0 mph /  20.9 km/h 83 % 0.0 in /  0 mm 392.0 W/m2 CLR
10:54 7.2 °F /  -13.8 °C 4.3 °F /  -15.4 °C 1004.6 in /  34015.8 hPa North 9.3 mph /  15 km/h 9.3 mph /  15 km/h 82 % 0.0 in /  0 mm 429.0 W/m2 CLR
10:58 7.8 °F /  -13.4 °C 4.7 °F /  -15.2 °C 1004.6 in /  34015.8 hPa NNW 13.0 mph /  20.9 km/h 13.0 mph /  20.9 km/h 81 % 0.0 in /  0 mm 406.0 W/m2 CLR
11:03 7.8 °F /  -13.4 °C 4.6 °F /  -15.2 °C 1004.6 in /  34015.8 hPa Calm     80 % 0.0 in /  0 mm 424.0 W/m2 CLR
11:08 7.8 °F /  -13.4 °C 4.6 °F /  -15.2 °C 1004.6 in /  34015.8 hPa Calm     80 % 0.0 in /  0 mm 283.0 W/m2 CLR
11:13 8.3 °F /  -13.2 °C 4.9 °F /  -15.1 °C 1005.0 in /  34029.3 hPa Calm     79 % 0.0 in /  0 mm 388.0 W/m2 CLR
11:19 8.3 °F /  -13.2 °C 4.7 °F /  -15.2 °C 1005.0 in /  34029.3 hPa Calm     78 % 0.0 in /  0 mm 403.0 W/m2 CLR
11:20 8.3 °F /  -13.2 °C 4.7 °F /  -15.2 °C 1005.0 in /  34029.3 hPa North 3.2 mph /  5.1 km/h 3.2 mph /  5.1 km/h 78 % 0.0 in /  0 mm 397.0 W/m2 CLR
11:25 8.9 °F /  -12.8 °C 5.1 °F /  -14.9 °C 1004.6 in /  34015.8 hPa NNW 3.7 mph /  6 km/h 3.7 mph /  6 km/h 77 % 0.0 in /  0 mm 262.0 W/m2 CLR
11:26 8.9 °F /  -12.8 °C 5.1 °F /  -14.9 °C 1005.0 in /  34029.3 hPa NNW 5.6 mph /  9 km/h 5.6 mph /  9 km/h 77 % 0.0 in /  0 mm 229.0 W/m2 CLR
11:31 8.9 °F /  -12.8 °C 5.1 °F /  -14.9 °C 1005.0 in /  34029.3 hPa NW 13.0 mph /  20.9 km/h 13.0 mph /  20.9 km/h 77 % 0.0 in /  0 mm 213.0 W/m2 CLR
11:36 8.3 °F /  -13.2 °C 4.6 °F /  -15.2 °C 1005.0 in /  34029.3 hPa NW 13.0 mph /  20.9 km/h 13.0 mph /  20.9 km/h 77 % 0.0 in /  0 mm 274.0 W/m2 CLR
11:44 8.3 °F /  -13.2 °C 4.7 °F /  -15.2 °C 1005.0 in /  34029.3 hPa NNW 14.8 mph /  23.8 km/h 14.8 mph /  23.8 km/h 78 % 0.0 in /  0 mm 373.0 W/m2 CLR
11:48 8.3 °F /  -13.2 °C 4.6 °F /  -15.2 °C 1005.0 in /  34029.3 hPa NNW 18.5 mph /  29.8 km/h 18.5 mph /  29.8 km/h 77 % 0.0 in /  0 mm 373.0 W/m2 CLR
11:53 8.3 °F /  -13.2 °C 4.6 °F /  -15.2 °C 1005.0 in /  34029.3 hPa NNW 13.0 mph /  20.9 km/h 13.0 mph /  20.9 km/h 77 % 0.0 in /  0 mm 362.0 W/m2 CLR
11:58 8.3 °F /  -13.2 °C 4.6 °F /  -15.2 °C 1004.6 in /  34015.8 hPa NW 5.6 mph /  9 km/h   77 % 0.0 in /  0 mm 367.0 W/m2 CLR
12:06 8.3 °F /  -13.2 °C 4.3 °F /  -15.4 °C 1004.3 in /  34005.6 hPa Calm     76 % 0.0 in /  0 mm 475.0 W/m2 CLR
12:07 8.3 °F /  -13.2 °C 4.3 °F /  -15.4 °C 1004.3 in /  34005.6 hPa Calm     76 % 0.0 in /  0 mm 475.0 W/m2 CLR
12:12 8.9 °F /  -12.8 °C 4.9 °F /  -15.1 °C 1004.3 in /  34005.6 hPa Calm     76 % 0.0 in /  0 mm 397.0 W/m2 CLR
12:15 8.9 °F /  -12.8 °C 4.7 °F /  -15.2 °C 1003.9 in /  33992.1 hPa Calm     75 % 0.0 in /  0 mm 350.0 W/m2 CLR
12:20 8.9 °F /  -12.8 °C 4.7 °F /  -15.2 °C 1003.9 in /  33992.1 hPa Calm     75 % 0.0 in /  0 mm 381.0 W/m2 CLR
12:25 8.9 °F /  -12.8 °C 4.5 °F /  -15.3 °C 1003.9 in /  33992.1 hPa Calm     74 % 0.0 in /  0 mm 343.0 W/m2 CLR
12:30 8.9 °F /  -12.8 °C 4.5 °F /  -15.3 °C 1003.9 in /  33992.1 hPa Calm     74 % 0.0 in /  0 mm 357.0 W/m2 CLR
12:35 8.9 °F /  -12.8 °C 4.5 °F /  -15.3 °C 1003.9 in /  33992.1 hPa Calm     74 % 0.0 in /  0 mm 341.0 W/m2 CLR
12:40 9.4 °F /  -12.6 °C 4.8 °F /  -15.1 °C 1003.9 in /  33992.1 hPa Calm     73 % 0.0 in /  0 mm 339.0 W/m2 CLR
12:41 9.4 °F /  -12.6 °C 4.8 °F /  -15.1 °C 1003.9 in /  33992.1 hPa Calm     73 % 0.0 in /  0 mm 315.0 W/m2 CLR
12:46 9.4 °F /  -12.6 °C 4.8 °F /  -15.1 °C 1003.6 in /  33981.9 hPa Calm     73 % 0.0 in /  0 mm 287.0 W/m2 CLR
12:49 9.4 °F /  -12.6 °C 4.8 °F /  -15.1 °C 1003.6 in /  33981.9 hPa Calm     73 % 0.0 in /  0 mm 241.0 W/m2 CLR
12:54 9.4 °F /  -12.6 °C 4.7 °F /  -15.2 °C 1003.6 in /  33981.9 hPa Calm     72 % 0.0 in /  0 mm 127.0 W/m2 CLR
12:57 9.4 °F /  -12.6 °C 4.8 °F /  -15.1 °C 1003.6 in /  33981.9 hPa Calm     73 % 0.0 in /  0 mm 137.0 W/m2 CLR
13:02 9.4 °F /  -12.6 °C 4.7 °F /  -15.2 °C 1003.6 in /  33981.9 hPa Calm     72 % 0.0 in /  0 mm 135.0 W/m2 CLR
13:05 9.4 °F /  -12.6 °C 4.7 °F /  -15.2 °C 1003.6 in /  33981.9 hPa Calm     72 % 0.0 in /  0 mm 132.0 W/m2 CLR
13:10 9.4 °F /  -12.6 °C 4.8 °F /  -15.1 °C 1003.6 in /  33981.9 hPa Calm     73 % 0.0 in /  0 mm 172.0 W/m2 CLR
13:14 9.4 °F /  -12.6 °C 4.8 °F /  -15.1 °C 1003.3 in /  33971.7 hPa Calm     73 % 0.0 in /  0 mm 241.0 W/m2 CLR
13:19 9.4 °F /  -12.6 °C 5.1 °F /  -14.9 °C 1003.3 in /  33971.7 hPa Calm     74 % 0.0 in /  0 mm 360.0 W/m2 CLR
13:21 9.4 °F /  -12.6 °C 5.1 °F /  -14.9 °C 1003.3 in /  33971.7 hPa Calm     74 % 0.0 in /  0 mm 411.0 W/m2 CLR
13:26 10.0 °F /  -12.2 °C 5.4 °F /  -14.8 °C 1003.3 in /  33971.7 hPa Calm     73 % 0.0 in /  0 mm 427.0 W/m2 CLR
13:27 10.0 °F /  -12.2 °C 5.4 °F /  -14.8 °C 1003.3 in /  33971.7 hPa Calm     73 % 0.0 in /  0 mm 427.0 W/m2 CLR
13:32 10.0 °F /  -12.2 °C 5.2 °F /  -14.9 °C 1002.9 in /  33958.2 hPa Calm     72 % 0.0 in /  0 mm 418.0 W/m2 CLR
13:37 10.0 °F /  -12.2 °C 4.8 °F /  -15.1 °C 1002.9 in /  33958.2 hPa Calm     70 % 0.0 in /  0 mm 287.0 W/m2 CLR
13:42 10.0 °F /  -12.2 °C 5.0 °F /  -15 °C 1002.9 in /  33958.2 hPa Calm     71 % 0.0 in /  0 mm 346.0 W/m2 CLR
13:47 10.0 °F /  -12.2 °C 5.0 °F /  -15 °C 1002.6 in /  33948 hPa NE 1.9 mph /  3.1 km/h 1.9 mph /  3.1 km/h 71 % 0.0 in /  0 mm 417.0 W/m2 CLR
13:52 10.0 °F /  -12.2 °C 4.8 °F /  -15.1 °C 1002.3 in /  33937.9 hPa East 14.5 mph /  23.3 km/h 14.5 mph /  23.3 km/h 70 % 0.0 in /  0 mm 417.0 W/m2 CLR
13:57 10.0 °F /  -12.2 °C 4.8 °F /  -15.1 °C 1001.9 in /  33924.3 hPa East 18.5 mph /  29.8 km/h 18.5 mph /  29.8 km/h 70 % 0.0 in /  0 mm 446.0 W/m2 CLR
14:02 10.0 °F /  -12.2 °C 4.8 °F /  -15.1 °C 1001.9 in /  33924.3 hPa East 18.5 mph /  29.8 km/h 18.5 mph /  29.8 km/h 70 % 0.0 in /  0 mm 406.0 W/m2 CLR
14:04 10.0 °F /  -12.2 °C 4.8 °F /  -15.1 °C 1001.9 in /  33924.3 hPa ENE 16.7 mph /  26.9 km/h 16.7 mph /  26.9 km/h 70 % 0.0 in /  0 mm 392.0 W/m2 CLR
14:06 10.0 °F /  -12.2 °C 5.0 °F /  -15 °C 1001.9 in /  33924.3 hPa ENE 18.5 mph /  29.8 km/h 18.5 mph /  29.8 km/h 71 % 0.0 in /  0 mm 394.0 W/m2 CLR
14:11 10.0 °F /  -12.2 °C 5.0 °F /  -15 °C 1001.9 in /  33924.3 hPa ENE 18.5 mph /  29.8 km/h 18.5 mph /  29.8 km/h 71 % 0.0 in /  0 mm 406.0 W/m2 CLR
14:16 10.0 °F /  -12.2 °C 4.8 °F /  -15.1 °C 1001.9 in /  33924.3 hPa ENE 18.5 mph /  29.8 km/h 18.5 mph /  29.8 km/h 70 % 0.0 in /  0 mm 371.0 W/m2 CLR
14:18 10.0 °F /  -12.2 °C 4.8 °F /  -15.1 °C 1001.9 in /  33924.3 hPa ENE 16.7 mph /  26.9 km/h 16.7 mph /  26.9 km/h 70 % 0.0 in /  0 mm 392.0 W/m2 CLR
14:23 10.0 °F /  -12.2 °C 5.0 °F /  -15 °C 1001.9 in /  33924.3 hPa ENE 12.9 mph /  20.8 km/h 12.9 mph /  20.8 km/h 71 % 0.0 in /  0 mm 162.0 W/m2 CLR
14:27 10.0 °F /  -12.2 °C 5.0 °F /  -15 °C 1001.9 in /  33924.3 hPa ENE 13.0 mph /  20.9 km/h 13.0 mph /  20.9 km/h 71 % 0.0 in /  0 mm 190.0 W/m2 CLR
14:32 10.0 °F /  -12.2 °C 5.2 °F /  -14.9 °C 1001.9 in /  33924.3 hPa East 9.7 mph /  15.6 km/h 9.7 mph /  15.6 km/h 72 % 0.0 in /  0 mm 162.0 W/m2 CLR
14:33 10.0 °F /  -12.2 °C 5.2 °F /  -14.9 °C 1001.9 in /  33924.3 hPa ENE 13.0 mph /  20.9 km/h 13.0 mph /  20.9 km/h 72 % 0.0 in /  0 mm 167.0 W/m2 CLR
14:38 10.0 °F /  -12.2 °C 5.2 °F /  -14.9 °C 1001.9 in /  33924.3 hPa ENE 13.0 mph /  20.9 km/h 13.0 mph /  20.9 km/h 72 % 0.0 in /  0 mm 146.0 W/m2 CLR
14:43 10.6 °F /  -11.9 °C 5.7 °F /  -14.6 °C 1001.6 in /  33914.2 hPa Calm     72 % 0.0 in /  0 mm 359.0 W/m2 CLR
14:48 10.6 °F /  -11.9 °C 5.7 °F /  -14.6 °C 1001.6 in /  33914.2 hPa Calm     72 % 0.0 in /  0 mm 163.0 W/m2 CLR
14:53 10.6 °F /  -11.9 °C 5.5 °F /  -14.7 °C 1001.6 in /  33914.2 hPa ENE 9.3 mph /  15 km/h 9.3 mph /  15 km/h 71 % 0.0 in /  0 mm 174.0 W/m2 CLR
14:58 10.6 °F /  -11.9 °C 5.7 °F /  -14.6 °C 1001.6 in /  33914.2 hPa ENE 16.7 mph /  26.9 km/h 16.7 mph /  26.9 km/h 72 % 0.0 in /  0 mm 176.0 W/m2 CLR
15:03 10.6 °F /  -11.9 °C 5.7 °F /  -14.6 °C 1001.2 in /  33900.6 hPa East 14.8 mph /  23.8 km/h 14.8 mph /  23.8 km/h 72 % 0.0 in /  0 mm 190.0 W/m2 CLR
15:06 10.6 °F /  -11.9 °C 5.7 °F /  -14.6 °C 1001.2 in /  33900.6 hPa ENE 16.7 mph /  26.9 km/h 16.7 mph /  26.9 km/h 72 % 0.0 in /  0 mm 192.0 W/m2 CLR
15:11 10.6 °F /  -11.9 °C 5.7 °F /  -14.6 °C 1000.9 in /  33890.5 hPa East 14.8 mph /  23.8 km/h 14.8 mph /  23.8 km/h 72 % 0.0 in /  0 mm 209.0 W/m2 CLR
15:16 11.1 °F /  -11.6 °C 6.3 °F /  -14.3 °C 1000.9 in /  33890.5 hPa East 1.9 mph /  3.1 km/h 1.9 mph /  3.1 km/h 72 % 0.0 in /  0 mm 188.0 W/m2 CLR
15:21 11.1 °F /  -11.6 °C 6.3 °F /  -14.3 °C 1000.9 in /  33890.5 hPa East 3.7 mph /  6 km/h 3.7 mph /  6 km/h 72 % 0.0 in /  0 mm 181.0 W/m2 CLR
15:26 11.1 °F /  -11.6 °C 6.3 °F /  -14.3 °C 1000.9 in /  33890.5 hPa East 3.7 mph /  6 km/h 3.7 mph /  6 km/h 72 % 0.0 in /  0 mm 171.0 W/m2 CLR
15:31 11.1 °F /  -11.6 °C 6.3 °F /  -14.3 °C 1000.9 in /  33890.5 hPa ENE 14.8 mph /  23.8 km/h 14.8 mph /  23.8 km/h 72 % 0.0 in /  0 mm 144.0 W/m2 CLR
15:36 11.1 °F /  -11.6 °C 6.3 °F /  -14.3 °C 1000.9 in /  33890.5 hPa NE 14.8 mph /  23.8 km/h 14.8 mph /  23.8 km/h 72 % 0.0 in /  0 mm 118.0 W/m2 CLR
15:42 11.1 °F /  -11.6 °C 6.3 °F /  -14.3 °C 1000.9 in /  33890.5 hPa ENE 11.1 mph /  17.9 km/h   72 % 0.0 in /  0 mm 121.0 W/m2 CLR
15:45 11.1 °F /  -11.6 °C 6.3 °F /  -14.3 °C 1000.6 in /  33880.3 hPa ENE 14.5 mph /  23.3 km/h 14.5 mph /  23.3 km/h 72 % 0.0 in /  0 mm 149.0 W/m2 CLR
15:48 11.1 °F /  -11.6 °C 6.3 °F /  -14.3 °C 1000.6 in /  33880.3 hPa ENE 5.6 mph /  9 km/h   72 % 0.0 in /  0 mm 153.0 W/m2 CLR
15:53 11.1 °F /  -11.6 °C 6.3 °F /  -14.3 °C 1000.6 in /  33880.3 hPa NE 14.8 mph /  23.8 km/h 14.8 mph /  23.8 km/h 72 % 0.0 in /  0 mm 125.0 W/m2 CLR
15:58 10.6 °F /  -11.9 °C 5.9 °F /  -14.5 °C 1000.6 in /  33880.3 hPa Calm     73 % 0.0 in /  0 mm 105.0 W/m2 CLR
15:59 10.6 °F /  -11.9 °C 5.9 °F /  -14.5 °C 1000.6 in /  33880.3 hPa Calm     73 % 0.0 in /  0 mm 105.0 W/m2 CLR
16:03 10.6 °F /  -11.9 °C 5.9 °F /  -14.5 °C 1000.6 in /  33880.3 hPa Calm     73 % 0.0 in /  0 mm 70.0 W/m2 CLR
16:08 10.6 °F /  -11.9 °C 5.9 °F /  -14.5 °C 1000.6 in /  33880.3 hPa ENE 14.8 mph /  23.8 km/h 14.8 mph /  23.8 km/h 73 % 0.0 in /  0 mm 58.0 W/m2 FEW
16:10 10.6 °F /  -11.9 °C 5.9 °F /  -14.5 °C 1000.6 in /  33880.3 hPa ENE 5.6 mph /  9 km/h   73 % 0.0 in /  0 mm 46.0 W/m2 FEW
16:14 10.6 °F /  -11.9 °C 6.3 °F /  -14.3 °C 1000.6 in /  33880.3 hPa Calm     75 % 0.0 in /  0 mm 33.0 W/m2 SCT
16:19 10.0 °F /  -12.2 °C 6.2 °F /  -14.3 °C 1000.2 in /  33866.8 hPa ENE 9.7 mph /  15.6 km/h 9.7 mph /  15.6 km/h 77 % 0.0 in /  0 mm 35.0 W/m2 BKN
16:24 10.0 °F /  -12.2 °C 6.7 °F /  -14.1 °C 1000.2 in /  33866.8 hPa NE 7.4 mph /  11.9 km/h 7.4 mph /  11.9 km/h 80 % 0.0 in /  0 mm 19.0 W/m2 BKN
16:27 10.0 °F /  -12.2 °C 6.7 °F /  -14.1 °C 1000.2 in /  33866.8 hPa Calm     80 % 0.0 in /  0 mm 14.0 W/m2 BKN
16:28 10.0 °F /  -12.2 °C 6.9 °F /  -13.9 °C 1000.2 in /  33866.8 hPa Calm     81 % 0.0 in /  0 mm 14.0 W/m2 BKN
16:33 9.4 °F /  -12.6 °C 6.7 °F /  -14.1 °C 999.9 in /  33856.6 hPa Calm     83 % 0.3 in /  7.62 mm 18.0 W/m2 RA
16:36 9.4 °F /  -12.6 °C 6.9 °F /  -13.9 °C 999.9 in /  33856.6 hPa Calm     84 % 0.3 in /  7.62 mm 11.0 W/m2 BKN
16:42 9.4 °F /  -12.6 °C 7.1 °F /  -13.8 °C 999.9 in /  33856.6 hPa Calm     85 % 1.3 in /  33.02 mm 7.0 W/m2 RA
16:45 8.9 °F /  -12.8 °C 6.7 °F /  -14.1 °C 999.9 in /  33856.6 hPa Calm     86 % 1.5 in /  38.1 mm 7.0 W/m2 RA
16:51 8.9 °F /  -12.8 °C 7.0 °F /  -13.9 °C 999.9 in /  33856.6 hPa NNW 13.0 mph /  20.9 km/h 13.0 mph /  20.9 km/h 88 % 1.8 in /  45.72 mm 5.0 W/m2 RA
16:55 8.9 °F /  -12.8 °C 7.0 °F /  -13.9 °C 999.9 in /  33856.6 hPa WNW 11.1 mph /  17.9 km/h 11.1 mph /  17.9 km/h 88 % 2.0 in /  50.8 mm 0.0 W/m2 RA
17:00 9.4 °F /  -12.6 °C 7.7 °F /  -13.5 °C 999.5 in /  33843.1 hPa Calm     89 % 2.3 in /  58.42 mm 5.0 W/m2 RA
17:05 9.4 °F /  -12.6 °C 7.7 °F /  -13.5 °C 999.5 in /  33843.1 hPa North 14.8 mph /  23.8 km/h 14.8 mph /  23.8 km/h 89 % 2.3 in /  58.42 mm 0.0 W/m2
17:10 9.4 °F /  -12.6 °C 7.7 °F /  -13.5 °C 999.9 in /  33856.6 hPa North 13.0 mph /  20.9 km/h 13.0 mph /  20.9 km/h 89 % 2.3 in /  58.42 mm 0.0 W/m2 CLR
17:15 9.4 °F /  -12.6 °C 7.7 °F /  -13.5 °C 999.5 in /  33843.1 hPa North 14.5 mph /  23.3 km/h 14.5 mph /  23.3 km/h 89 % 2.3 in /  58.42 mm 0.0 W/m2 OVC
17:20 8.9 °F /  -12.8 °C 7.0 °F /  -13.9 °C 999.5 in /  33843.1 hPa NNW 11.1 mph /  17.9 km/h 11.1 mph /  17.9 km/h 88 % 2.3 in /  58.42 mm 0.0 W/m2 OVC
17:23 8.9 °F /  -12.8 °C 7.2 °F /  -13.8 °C 999.5 in /  33843.1 hPa NNW 14.8 mph /  23.8 km/h 14.8 mph /  23.8 km/h 89 % 2.3 in /  58.42 mm 0.0 W/m2 RA
17:28 8.3 °F /  -13.2 °C 6.6 °F /  -14.1 °C 999.9 in /  33856.6 hPa North 18.5 mph /  29.8 km/h 18.5 mph /  29.8 km/h 89 % 2.5 in /  63.5 mm 0.0 W/m2 RA
17:30 8.3 °F /  -13.2 °C 6.6 °F /  -14.1 °C 999.9 in /  33856.6 hPa North 16.7 mph /  26.9 km/h 16.7 mph /  26.9 km/h 89 % 2.8 in /  71.12 mm 0.0 W/m2 RA
17:35 8.3 °F /  -13.2 °C 6.6 °F /  -14.1 °C 1000.2 in /  33866.8 hPa Calm     89 % 3.3 in /  83.82 mm 0.0 W/m2 RA
17:40 8.3 °F /  -13.2 °C 6.8 °F /  -14 °C 999.9 in /  33856.6 hPa Calm     90 % 3.6 in /  91.44 mm 0.0 W/m2 RA
17:45 7.8 °F /  -13.4 °C 6.2 °F /  -14.3 °C 1000.2 in /  33866.8 hPa ENE 5.6 mph /  9 km/h   90 % 3.3 in /  83.82 mm 0.0 W/m2 RA
17:50 7.8 °F /  -13.4 °C 6.2 °F /  -14.3 °C 999.9 in /  33856.6 hPa North 12.9 mph /  20.8 km/h 12.9 mph /  20.8 km/h 90 % 3.3 in /  83.82 mm 0.0 W/m2 RA
17:55 7.8 °F /  -13.4 °C 6.2 °F /  -14.3 °C 999.2 in /  33832.9 hPa North 18.5 mph /  29.8 km/h 18.5 mph /  29.8 km/h 90 % 4.1 in /  104.14 mm 0.0 W/m2 RA
17:58 7.8 °F /  -13.4 °C 6.2 °F /  -14.3 °C 999.5 in /  33843.1 hPa NW 25.9 mph /  41.7 km/h 25.9 mph /  41.7 km/h 90 % 4.1 in /  104.14 mm 0.0 W/m2 RA
18:03 7.8 °F /  -13.4 °C 6.4 °F /  -14.2 °C 999.5 in /  33843.1 hPa WSW 35.2 mph /  56.6 km/h 35.2 mph /  56.6 km/h 91 % 4.3 in /  109.22 mm 0.0 W/m2 RA
18:07 7.8 °F /  -13.4 °C 6.4 °F /  -14.2 °C 999.5 in /  33843.1 hPa WNW 13.0 mph /  20.9 km/h 13.0 mph /  20.9 km/h 91 % 5.3 in /  134.62 mm 0.0 W/m2 RA
18:12 7.8 °F /  -13.4 °C 6.4 °F /  -14.2 °C 999.5 in /  33843.1 hPa West 13.0 mph /  20.9 km/h 13.0 mph /  20.9 km/h 91 % 7.1 in /  180.34 mm 0.0 W/m2 RA
18:14 7.2 °F /  -13.8 °C 5.8 °F /  -14.6 °C 999.5 in /  33843.1 hPa NW 14.8 mph /  23.8 km/h 14.8 mph /  23.8 km/h 91 % 7.6 in /  193.04 mm 0.0 W/m2 RA
18:19 7.2 °F /  -13.8 °C 5.8 °F /  -14.6 °C 999.5 in /  33843.1 hPa WNW 14.8 mph /  23.8 km/h 14.8 mph /  23.8 km/h 91 % 8.4 in /  213.36 mm 0.0 W/m2 RA
18:24 7.2 °F /  -13.8 °C 5.8 °F /  -14.6 °C 999.5 in /  33843.1 hPa NW 16.7 mph /  26.9 km/h 16.7 mph /  26.9 km/h 91 % 8.9 in /  226.06 mm 0.0 W/m2 RA
18:29 7.2 °F /  -13.8 °C 5.8 °F /  -14.6 °C 999.5 in /  33843.1 hPa West 18.5 mph /  29.8 km/h 18.5 mph /  29.8 km/h 91 % 8.6 in /  218.44 mm 0.0 W/m2 RA
18:34 7.2 °F /  -13.8 °C 5.8 °F /  -14.6 °C 999.5 in /  33843.1 hPa NW 16.7 mph /  26.9 km/h 16.7 mph /  26.9 km/h 91 % 8.6 in /  218.44 mm 0.0 W/m2 RA
18:36 7.2 °F /  -13.8 °C 5.8 °F /  -14.6 °C 999.2 in /  33832.9 hPa NNW 18.5 mph /  29.8 km/h 18.5 mph /  29.8 km/h 91 % 8.4 in /  213.36 mm 0.0 W/m2 RA
18:41 7.2 °F /  -13.8 °C 5.8 °F /  -14.6 °C 999.2 in /  33832.9 hPa NW 18.5 mph /  29.8 km/h 18.5 mph /  29.8 km/h 91 % 7.6 in /  193.04 mm 0.0 W/m2 RA
18:43 7.2 °F /  -13.8 °C 5.8 °F /  -14.6 °C 999.2 in /  33832.9 hPa NW 9.3 mph /  15 km/h 9.3 mph /  15 km/h 91 % 7.6 in /  193.04 mm 0.0 W/m2 RA
18:44 7.2 °F /  -13.8 °C 5.8 °F /  -14.6 °C 999.2 in /  33832.9 hPa WNW 12.9 mph /  20.8 km/h 12.9 mph /  20.8 km/h 91 % 7.4 in /  187.96 mm 0.0 W/m2 RA
18:49 7.2 °F /  -13.8 °C 5.8 °F /  -14.6 °C 999.5 in /  33843.1 hPa WNW 18.5 mph /  29.8 km/h 18.5 mph /  29.8 km/h 91 % 7.9 in /  200.66 mm 0.0 W/m2 RA
18:54 6.7 °F /  -14.1 °C 5.3 °F /  -14.8 °C 999.2 in /  33832.9 hPa NNW 25.9 mph /  41.7 km/h 25.9 mph /  41.7 km/h 91 % 7.9 in /  200.66 mm 0.0 W/m2 RA
18:55 6.7 °F /  -14.1 °C 5.3 °F /  -14.8 °C 999.2 in /  33832.9 hPa NNW 20.4 mph /  32.8 km/h 20.4 mph /  32.8 km/h 91 % 7.9 in /  200.66 mm 0.0 W/m2 RA
19:00 6.7 °F /  -14.1 °C 5.3 °F /  -14.8 °C 998.9 in /  33822.8 hPa NNW 22.2 mph /  35.7 km/h 22.2 mph /  35.7 km/h 91 % 7.9 in /  200.66 mm 0.0 W/m2 RA
19:05 6.7 °F /  -14.1 °C 5.3 °F /  -14.8 °C 999.2 in /  33832.9 hPa West 24.1 mph /  38.8 km/h 24.1 mph /  38.8 km/h 91 % 7.4 in /  187.96 mm 0.0 W/m2 RA
19:10 6.7 °F /  -14.1 °C 5.3 °F /  -14.8 °C 999.5 in /  33843.1 hPa NW 18.5 mph /  29.8 km/h 18.5 mph /  29.8 km/h 91 % 7.6 in /  193.04 mm 0.0 W/m2 RA
19:13 6.1 °F /  -14.4 °C 4.9 °F /  -15.1 °C 999.5 in /  33843.1 hPa NNW 24.1 mph /  38.8 km/h 24.1 mph /  38.8 km/h 92 % 7.1 in /  180.34 mm 0.0 W/m2 RA
19:15 6.1 °F /  -14.4 °C 4.9 °F /  -15.1 °C 999.5 in /  33843.1 hPa WNW 22.2 mph /  35.7 km/h 22.2 mph /  35.7 km/h 92 % 7.1 in /  180.34 mm 0.0 W/m2 RA
19:20 6.1 °F /  -14.4 °C 4.8 °F /  -15.1 °C 999.5 in /  33843.1 hPa NNW 16.1 mph /  25.9 km/h 16.1 mph /  25.9 km/h 91 % 8.6 in /  218.44 mm 0.0 W/m2 RA
19:26 6.1 °F /  -14.4 °C 4.9 °F /  -15.1 °C 999.5 in /  33843.1 hPa WNW 20.4 mph /  32.8 km/h 20.4 mph /  32.8 km/h 92 % 8.6 in /  218.44 mm 0.0 W/m2 RA
19:31 6.1 °F /  -14.4 °C 4.9 °F /  -15.1 °C 999.9 in /  33856.6 hPa WNW 20.4 mph /  32.8 km/h 20.4 mph /  32.8 km/h 92 % 10.7 in /  271.78 mm 0.0 W/m2 RA
19:34 6.1 °F /  -14.4 °C 4.8 °F /  -15.1 °C 999.9 in /  33856.6 hPa West 22.2 mph /  35.7 km/h 22.2 mph /  35.7 km/h 91 % 11.4 in /  289.56 mm 0.0 W/m2 RA
19:39 5.6 °F /  -14.7 °C 4.3 °F /  -15.4 °C 999.5 in /  33843.1 hPa WNW 22.2 mph /  35.7 km/h 22.2 mph /  35.7 km/h 92 % 11.9 in /  302.26 mm 0.0 W/m2 RA
19:44 5.6 °F /  -14.7 °C 4.3 °F /  -15.4 °C 999.2 in /  33832.9 hPa WNW 18.5 mph /  29.8 km/h 18.5 mph /  29.8 km/h 92 % 11.7 in /  297.18 mm 0.0 W/m2 RA
19:49 5.6 °F /  -14.7 °C 4.3 °F /  -15.4 °C 999.2 in /  33832.9 hPa WNW 22.2 mph /  35.7 km/h 22.2 mph /  35.7 km/h 92 % 11.7 in /  297.18 mm 0.0 W/m2 RA
19:51 5.6 °F /  -14.7 °C 4.3 °F /  -15.4 °C 999.2 in /  33832.9 hPa NW 27.8 mph /  44.7 km/h 27.8 mph /  44.7 km/h 92 % 11.4 in /  289.56 mm 0.0 W/m2 RA
19:56 5.6 °F /  -14.7 °C 4.3 °F /  -15.4 °C 999.2 in /  33832.9 hPa NW 18.5 mph /  29.8 km/h 18.5 mph /  29.8 km/h 92 % 11.4 in /  289.56 mm 0.0 W/m2 RA
20:01 5.6 °F /  -14.7 °C 4.3 °F /  -15.4 °C 999.2 in /  33832.9 hPa NNW 16.7 mph /  26.9 km/h 16.7 mph /  26.9 km/h 92 % 11.7 in /  297.18 mm 0.0 W/m2 RA
20:06 5.6 °F /  -14.7 °C 4.3 °F /  -15.4 °C 999.2 in /  33832.9 hPa NNW 18.5 mph /  29.8 km/h 18.5 mph /  29.8 km/h 92 % 10.9 in /  276.86 mm 0.0 W/m2 RA
20:08 5.6 °F /  -14.7 °C 4.3 °F /  -15.4 °C 998.9 in /  33822.8 hPa North 18.5 mph /  29.8 km/h 18.5 mph /  29.8 km/h 92 % 10.7 in /  271.78 mm 0.0 W/m2 RA
20:14 5.6 °F /  -14.7 °C 4.3 °F /  -15.4 °C 999.2 in /  33832.9 hPa NNW 18.5 mph /  29.8 km/h 18.5 mph /  29.8 km/h 92 % 9.9 in /  251.46 mm 0.0 W/m2 RA
20:19 5.6 °F /  -14.7 °C 4.3 °F /  -15.4 °C 999.5 in /  33843.1 hPa NW 16.7 mph /  26.9 km/h 16.7 mph /  26.9 km/h 92 % 7.9 in /  200.66 mm 0.0 W/m2
20:24 5.6 °F /  -14.7 °C 4.3 °F /  -15.4 °C 999.2 in /  33832.9 hPa WNW 18.5 mph /  29.8 km/h 18.5 mph /  29.8 km/h 92 % 7.6 in /  193.04 mm 0.0 W/m2 RA
20:29 5.6 °F /  -14.7 °C 4.3 °F /  -15.4 °C 999.5 in /  33843.1 hPa WNW 16.7 mph /  26.9 km/h 16.7 mph /  26.9 km/h 92 % 7.9 in /  200.66 mm 0.0 W/m2 RA
20:34 5.6 °F /  -14.7 °C 4.3 °F /  -15.4 °C 999.9 in /  33856.6 hPa WSW 14.8 mph /  23.8 km/h 14.8 mph /  23.8 km/h 92 % 6.1 in /  154.94 mm 0.0 W/m2 RA
20:37 5.6 °F /  -14.7 °C 4.3 °F /  -15.4 °C 999.2 in /  33832.9 hPa NW 12.9 mph /  20.8 km/h 12.9 mph /  20.8 km/h 92 % 5.8 in /  147.32 mm 0.0 W/m2 RA
20:42 5.6 °F /  -14.7 °C 4.3 °F /  -15.4 °C 999.2 in /  33832.9 hPa NNW 13.0 mph /  20.9 km/h 13.0 mph /  20.9 km/h 92 % 5.6 in /  142.24 mm 0.0 W/m2 RA
20:46 5.6 °F /  -14.7 °C 4.3 °F /  -15.4 °C 999.2 in /  33832.9 hPa Calm     92 % 5.3 in /  134.62 mm 0.0 W/m2 CLR
20:52 5.6 °F /  -14.7 °C 4.3 °F /  -15.4 °C 999.2 in /  33832.9 hPa North 18.5 mph /  29.8 km/h 18.5 mph /  29.8 km/h 92 % 5.1 in /  129.54 mm 0.0 W/m2 CLR
20:56 5.6 °F /  -14.7 °C 4.3 °F /  -15.4 °C 999.2 in /  33832.9 hPa WNW 11.1 mph /  17.9 km/h 11.1 mph /  17.9 km/h 92 % 4.3 in /  109.22 mm 0.0 W/m2 CLR
21:01 5.6 °F /  -14.7 °C 4.3 °F /  -15.4 °C 999.9 in /  33856.6 hPa West 18.5 mph /  29.8 km/h 18.5 mph /  29.8 km/h 92 % 4.3 in /  109.22 mm 0.0 W/m2 CLR
21:03 5.6 °F /  -14.7 °C 4.3 °F /  -15.4 °C 999.9 in /  33856.6 hPa West 20.4 mph /  32.8 km/h 20.4 mph /  32.8 km/h 92 % 4.1 in /  104.14 mm 0.0 W/m2 CLR
21:08 5.6 °F /  -14.7 °C 4.3 °F /  -15.4 °C 999.9 in /  33856.6 hPa WNW 25.9 mph /  41.7 km/h 25.9 mph /  41.7 km/h 92 % 3.6 in /  91.44 mm 0.0 W/m2 RA
21:09 5.6 °F /  -14.7 °C 4.3 °F /  -15.4 °C 999.5 in /  33843.1 hPa NW 18.5 mph /  29.8 km/h 18.5 mph /  29.8 km/h 92 % 3.6 in /  91.44 mm 0.0 W/m2 RA
21:13 5.6 °F /  -14.7 °C 4.3 °F /  -15.4 °C 999.5 in /  33843.1 hPa NNW 19.3 mph /  31.1 km/h 19.3 mph /  31.1 km/h 92 % 3.8 in /  96.52 mm 0.0 W/m2 RA
21:18 5.6 °F /  -14.7 °C 4.3 °F /  -15.4 °C 999.5 in /  33843.1 hPa NNW 18.5 mph /  29.8 km/h 18.5 mph /  29.8 km/h 92 % 3.6 in /  91.44 mm 0.0 W/m2
21:20 5.6 °F /  -14.7 °C 4.3 °F /  -15.4 °C 999.2 in /  33832.9 hPa North 19.3 mph /  31.1 km/h 19.3 mph /  31.1 km/h 92 % 3.6 in /  91.44 mm 0.0 W/m2 CLR
21:24 5.6 °F /  -14.7 °C 4.3 °F /  -15.4 °C 999.2 in /  33832.9 hPa NNE 14.8 mph /  23.8 km/h 14.8 mph /  23.8 km/h 92 % 3.3 in /  83.82 mm 0.0 W/m2 CLR
21:29 5.6 °F /  -14.7 °C 4.3 °F /  -15.4 °C 998.9 in /  33822.8 hPa NW 18.5 mph /  29.8 km/h 18.5 mph /  29.8 km/h 92 % 1.8 in /  45.72 mm 0.0 W/m2 CLR
21:31 5.6 °F /  -14.7 °C 4.3 °F /  -15.4 °C 998.9 in /  33822.8 hPa NW 16.7 mph /  26.9 km/h 16.7 mph /  26.9 km/h 92 % 1.5 in /  38.1 mm 0.0 W/m2 CLR
21:36 5.6 °F /  -14.7 °C 4.3 °F /  -15.4 °C 999.5 in /  33843.1 hPa NNE 7.4 mph /  11.9 km/h 7.4 mph /  11.9 km/h 92 % 1.0 in /  25.4 mm 0.0 W/m2 CLR
21:38 5.6 °F /  -14.7 °C 4.3 °F /  -15.4 °C 999.5 in /  33843.1 hPa North 3.7 mph /  6 km/h   92 % 1.0 in /  25.4 mm 0.0 W/m2 CLR
21:43 5.6 °F /  -14.7 °C 4.3 °F /  -15.4 °C 999.9 in /  33856.6 hPa Calm     92 % 0.8 in /  20.32 mm 0.0 W/m2 CLR
21:46 5.6 °F /  -14.7 °C 4.3 °F /  -15.4 °C 1000.2 in /  33866.8 hPa Calm     92 % 0.8 in /  20.32 mm 0.0 W/m2 CLR
21:50 5.6 °F /  -14.7 °C 4.3 °F /  -15.4 °C 1000.2 in /  33866.8 hPa Calm     92 % 0.8 in /  20.32 mm 0.0 W/m2 CLR
21:54 5.6 °F /  -14.7 °C 4.3 °F /  -15.4 °C 1000.9 in /  33890.5 hPa West 29.6 mph /  47.6 km/h 29.6 mph /  47.6 km/h 92 % 1.0 in /  25.4 mm 0.0 W/m2 RA
21:59 5.0 °F /  -15 °C 3.8 °F /  -15.7 °C 1000.9 in /  33890.5 hPa West 7.4 mph /  11.9 km/h 7.4 mph /  11.9 km/h 92 % 1.5 in /  38.1 mm 0.0 W/m2 RA
22:05 5.0 °F /  -15 °C 3.8 °F /  -15.7 °C 1000.9 in /  33890.5 hPa West 17.7 mph /  28.5 km/h 17.7 mph /  28.5 km/h 92 % 2.3 in /  58.42 mm 0.0 W/m2 RA
22:07 5.0 °F /  -15 °C 3.8 °F /  -15.7 °C 1000.9 in /  33890.5 hPa West 18.5 mph /  29.8 km/h 18.5 mph /  29.8 km/h 92 % 2.3 in /  58.42 mm 0.0 W/m2 RA
22:12 5.0 °F /  -15 °C 3.8 °F /  -15.7 °C 1001.2 in /  33900.6 hPa West 25.9 mph /  41.7 km/h 25.9 mph /  41.7 km/h 92 % 1.8 in /  45.72 mm 0.0 W/m2
22:15 5.0 °F /  -15 °C 3.8 °F /  -15.7 °C 1000.9 in /  33890.5 hPa WNW 11.1 mph /  17.9 km/h   92 % 2.0 in /  50.8 mm 0.0 W/m2 RA
22:20 5.0 °F /  -15 °C 3.8 °F /  -15.7 °C 1000.9 in /  33890.5 hPa Calm     92 % 2.3 in /  58.42 mm 0.0 W/m2 RA
22:23 5.0 °F /  -15 °C 3.8 °F /  -15.7 °C 1000.6 in /  33880.3 hPa NNW 13.0 mph /  20.9 km/h 13.0 mph /  20.9 km/h 92 % 2.3 in /  58.42 mm 0.0 W/m2 RA
22:28 5.0 °F /  -15 °C 3.8 °F /  -15.7 °C 1000.9 in /  33890.5 hPa Calm     92 % 2.5 in /  63.5 mm 0.0 W/m2 RA
22:33 5.0 °F /  -15 °C 3.8 °F /  -15.7 °C 1000.6 in /  33880.3 hPa Calm     92 % 2.5 in /  63.5 mm 0.0 W/m2 CLR
22:34 5.0 °F /  -15 °C 3.8 °F /  -15.7 °C 1000.9 in /  33890.5 hPa Calm     92 % 2.5 in /  63.5 mm 0.0 W/m2 CLR
22:39 5.0 °F /  -15 °C 3.8 °F /  -15.7 °C 1000.6 in /  33880.3 hPa Calm     92 % 2.5 in /  63.5 mm 0.0 W/m2 CLR
22:43 5.0 °F /  -15 °C 3.8 °F /  -15.7 °C 1000.6 in /  33880.3 hPa Calm     92 % 2.5 in /  63.5 mm 0.0 W/m2 CLR
22:48 5.0 °F /  -15 °C 3.8 °F /  -15.7 °C 1000.9 in /  33890.5 hPa Calm     92 % 2.5 in /  63.5 mm 0.0 W/m2 CLR
22:53 5.0 °F /  -15 °C 3.8 °F /  -15.7 °C 1000.6 in /  33880.3 hPa Calm     92 % 2.3 in /  58.42 mm 0.0 W/m2 CLR
22:58 5.0 °F /  -15 °C 3.8 °F /  -15.7 °C 1000.6 in /  33880.3 hPa Calm     92 % 2.0 in /  50.8 mm 0.0 W/m2 CLR
23:00 5.0 °F /  -15 °C 3.8 °F /  -15.7 °C 1000.6 in /  33880.3 hPa Calm     92 % 1.8 in /  45.72 mm 0.0 W/m2 CLR
23:05 5.0 °F /  -15 °C 3.8 °F /  -15.7 °C 1000.9 in /  33890.5 hPa Calm     92 % 1.0 in /  25.4 mm 0.0 W/m2 CLR
23:10 5.0 °F /  -15 °C 3.8 °F /  -15.7 °C 1000.9 in /  33890.5 hPa Calm     92 % 0.8 in /  20.32 mm 0.0 W/m2 CLR
23:11 5.0 °F /  -15 °C 3.8 °F /  -15.7 °C 1000.9 in /  33890.5 hPa Calm     92 % 1.0 in /  25.4 mm 0.0 W/m2 RA
23:16 5.0 °F /  -15 °C 3.8 °F /  -15.7 °C 1000.6 in /  33880.3 hPa Calm     92 % 0.8 in /  20.32 mm 0.0 W/m2
23:22 5.0 °F /  -15 °C 3.8 °F /  -15.7 °C 1000.6 in /  33880.3 hPa Calm     92 % 0.5 in /  12.7 mm 0.0 W/m2 CLR
23:23 5.0 °F /  -15 °C 3.8 °F /  -15.7 °C 1000.6 in /  33880.3 hPa Calm     92 % 0.5 in /  12.7 mm 0.0 W/m2 CLR
23:33 5.0 °F /  -15 °C 3.8 °F /  -15.7 °C 1000.9 in /  33890.5 hPa Calm     92 % 0.3 in /  7.62 mm 0.0 W/m2 CLR
23:38 5.0 °F /  -15 °C 3.8 °F /  -15.7 °C 1000.6 in /  33880.3 hPa Calm     92 % 0.3 in /  7.62 mm 0.0 W/m2 CLR
23:41 5.0 °F /  -15 °C 3.9 °F /  -15.6 °C 1000.6 in /  33880.3 hPa Calm     93 % 0.3 in /  7.62 mm 0.0 W/m2 CLR
23:46 5.0 °F /  -15 °C 3.8 °F /  -15.7 °C 1000.2 in /  33866.8 hPa Calm     92 % 0.3 in /  7.62 mm 0.0 W/m2 CLR
23:51 4.4 °F /  -15.3 °C 3.4 °F /  -15.9 °C 1000.2 in /  33866.8 hPa Calm     93 % 0.3 in /  7.62 mm 0.0 W/m2 CLR
23:52 4.4 °F /  -15.3 °C 3.4 °F /  -15.9 °C 1000.2 in /  33866.8 hPa Calm     93 % 0.3 in /  7.62 mm 0.0 W/m2 CLR
23:57 5.0 °F /  -15 °C 3.8 °F /  -15.7 °C 1000.2 in /  33866.8 hPa Calm     92 % 0.3 in /  7.62 mm 0.0 W/m2 CLR
Lo Temps de Massalio
Compliments of Weather Underground - 1.25 mb